SAS1716 EKCH-EFHK
Flight info
| Callsign | SAS1716 |
|---|---|
| Flight time | 1h 14m |
| Altitude | 37000 |
| Route | KEMAX T408 OTVEB DCT ALAMI DCT OKEVU DCT EVADI Y370 DIVAM |
| Aircraft | A320/M-SDE3FGHIRWY/LB1 |
Departure
| Time | 2026-04-24 15:55 |
|---|---|
| Airport | Copenhagen Kastrup Airport (EKCH) |
Arrival
| Time | 2026-04-24 17:09 |
|---|---|
| Airport | Helsinki Vantaa Airport (EFHK) |
| Time | Latitude | Longitude | Altitude | Speed | Heading |
|---|---|---|---|---|---|
| 2026-04-24 15:17 | 55.62709 | 12.64460 | 17 ft | 0 kts | 101° |
| 2026-04-24 15:43 | 55.62712 | 12.64434 | 17 ft | 4 kts | 99° |
| 2026-04-24 15:43 | 55.62715 | 12.64387 | 17 ft | 4 kts | 84° |
| 2026-04-24 15:43 | 55.62707 | 12.64348 | 19 ft | 4 kts | 33° |
| 2026-04-24 15:43 | 55.62687 | 12.64330 | 17 ft | 4 kts | 23° |
| 2026-04-24 15:44 | 55.62662 | 12.64312 | 17 ft | 4 kts | 23° |
| 2026-04-24 15:44 | 55.62637 | 12.64292 | 19 ft | 4 kts | 25° |
| 2026-04-24 15:44 | 55.62614 | 12.64271 | 19 ft | 3 kts | 32° |
| 2026-04-24 15:44 | 55.62598 | 12.64241 | 19 ft | 4 kts | 81° |
| 2026-04-24 15:45 | 55.62600 | 12.64196 | 18 ft | 4 kts | 115° |
| 2026-04-24 15:45 | 55.62613 | 12.64158 | 18 ft | 4 kts | 123° |
| 2026-04-24 15:45 | 55.62627 | 12.64120 | 20 ft | 3 kts | 123° |
| 2026-04-24 15:45 | 55.62629 | 12.64116 | 20 ft | 0 kts | 123° |
| 2026-04-24 15:48 | 55.62624 | 12.64128 | 17 ft | 3 kts | 124° |
| 2026-04-24 15:48 | 55.62604 | 12.64182 | 17 ft | 7 kts | 123° |
| 2026-04-24 15:48 | 55.62568 | 12.64279 | 18 ft | 11 kts | 123° |
| 2026-04-24 15:48 | 55.62517 | 12.64419 | 17 ft | 15 kts | 123° |
| 2026-04-24 15:49 | 55.62451 | 12.64596 | 17 ft | 19 kts | 124° |
| 2026-04-24 15:49 | 55.62386 | 12.64765 | 17 ft | 14 kts | 136° |
| 2026-04-24 15:49 | 55.62283 | 12.64788 | 19 ft | 17 kts | 174° |
| 2026-04-24 15:49 | 55.62164 | 12.64718 | 18 ft | 20 kts | 213° |
| 2026-04-24 15:50 | 55.62038 | 12.64575 | 19 ft | 13 kts | 212° |
| 2026-04-24 15:50 | 55.61964 | 12.64513 | 17 ft | 12 kts | 195° |
| 2026-04-24 15:50 | 55.61873 | 12.64516 | 18 ft | 14 kts | 170° |
| 2026-04-24 15:50 | 55.61771 | 12.64548 | 18 ft | 16 kts | 169° |
| 2026-04-24 15:51 | 55.61673 | 12.64561 | 17 ft | 13 kts | 200° |
| 2026-04-24 15:51 | 55.61591 | 12.64470 | 18 ft | 15 kts | 213° |
| 2026-04-24 15:51 | 55.61497 | 12.64362 | 17 ft | 17 kts | 213° |
| 2026-04-24 15:51 | 55.61390 | 12.64238 | 19 ft | 20 kts | 213° |
| 2026-04-24 15:52 | 55.61311 | 12.64148 | 18 ft | 21 kts | 212° |
| 2026-04-24 15:52 | 55.61132 | 12.63942 | 17 ft | 24 kts | 213° |
| 2026-04-24 15:52 | 55.61010 | 12.63802 | 18 ft | 8 kts | 213° |
| 2026-04-24 15:52 | 55.60958 | 12.63742 | 19 ft | 10 kts | 213° |
| 2026-04-24 15:53 | 55.60893 | 12.63668 | 18 ft | 12 kts | 212° |
| 2026-04-24 15:53 | 55.60815 | 12.63586 | 17 ft | 13 kts | 195° |
| 2026-04-24 15:53 | 55.60743 | 12.63674 | 17 ft | 14 kts | 130° |
| 2026-04-24 15:53 | 55.60676 | 12.63814 | 18 ft | 14 kts | 130° |
| 2026-04-24 15:54 | 55.60687 | 12.63887 | 19 ft | 0 kts | 43° |
| 2026-04-24 15:54 | 55.60748 | 12.63985 | 19 ft | 42 kts | 41° |
| 2026-04-24 15:54 | 55.61155 | 12.64614 | 17 ft | 109 kts | 41° |
| 2026-04-24 15:54 | 55.61867 | 12.65704 | 33 ft | 158 kts | 38° |
| 2026-04-24 15:55 | 55.62691 | 12.66999 | 622 ft | 157 kts | 35° |
| 2026-04-24 15:55 | 55.63234 | 12.67841 | 1079 ft | 156 kts | 35° |
| 2026-04-24 15:55 | 55.64045 | 12.69105 | 1763 ft | 155 kts | 33° |
| 2026-04-24 15:55 | 55.64906 | 12.70434 | 2144 ft | 174 kts | 32° |
| 2026-04-24 15:56 | 55.65846 | 12.71841 | 2509 ft | 190 kts | 34° |
| 2026-04-24 15:56 | 55.66913 | 12.73382 | 2906 ft | 210 kts | 33° |
| 2026-04-24 15:56 | 55.68107 | 12.75110 | 3411 ft | 231 kts | 33° |
| 2026-04-24 15:56 | 55.69393 | 12.77001 | 4038 ft | 247 kts | 34° |
| 2026-04-24 15:57 | 55.70736 | 12.79013 | 4850 ft | 256 kts | 34° |
| 2026-04-24 15:57 | 55.72104 | 12.81069 | 5791 ft | 259 kts | 35° |
| 2026-04-24 15:57 | 55.73490 | 12.83169 | 6652 ft | 265 kts | 35° |
| 2026-04-24 15:57 | 55.74902 | 12.85323 | 7462 ft | 270 kts | 36° |
| 2026-04-24 15:58 | 55.76304 | 12.87517 | 8288 ft | 275 kts | 36° |
| 2026-04-24 15:58 | 55.77749 | 12.89804 | 9133 ft | 279 kts | 36° |
| 2026-04-24 15:58 | 55.79210 | 12.92124 | 9954 ft | 283 kts | 36° |
| 2026-04-24 15:58 | 55.80721 | 12.94515 | 10414 ft | 300 kts | 36° |
| 2026-04-24 15:59 | 55.82345 | 12.97065 | 10695 ft | 321 kts | 36° |
| 2026-04-24 15:59 | 55.84022 | 12.99712 | 11269 ft | 329 kts | 36° |
| 2026-04-24 15:59 | 55.85747 | 13.02444 | 11952 ft | 334 kts | 36° |
| 2026-04-24 15:59 | 55.87502 | 13.05221 | 12647 ft | 339 kts | 35° |
| 2026-04-24 16:00 | 55.89282 | 13.08039 | 13351 ft | 344 kts | 35° |
| 2026-04-24 16:00 | 55.91088 | 13.10902 | 13998 ft | 350 kts | 35° |
| 2026-04-24 16:00 | 55.92903 | 13.13779 | 14586 ft | 355 kts | 35° |
| 2026-04-24 16:00 | 55.94757 | 13.16732 | 15205 ft | 359 kts | 35° |
| 2026-04-24 16:01 | 55.96631 | 13.19727 | 15828 ft | 362 kts | 35° |
| 2026-04-24 16:01 | 55.98521 | 13.22745 | 16411 ft | 366 kts | 35° |
| 2026-04-24 16:01 | 56.00416 | 13.25761 | 17015 ft | 369 kts | 34° |
| 2026-04-24 16:01 | 56.02346 | 13.28834 | 17635 ft | 373 kts | 34° |
| 2026-04-24 16:02 | 56.04292 | 13.31939 | 18245 ft | 377 kts | 34° |
| 2026-04-24 16:02 | 56.06261 | 13.35089 | 18805 ft | 380 kts | 34° |
| 2026-04-24 16:02 | 56.08242 | 13.38272 | 19388 ft | 383 kts | 34° |
| 2026-04-24 16:02 | 56.10204 | 13.41431 | 19977 ft | 386 kts | 34° |
| 2026-04-24 16:03 | 56.12206 | 13.44682 | 20590 ft | 391 kts | 36° |
| 2026-04-24 16:03 | 56.14032 | 13.48396 | 21146 ft | 401 kts | 43° |
| 2026-04-24 16:03 | 56.15796 | 13.52296 | 21698 ft | 403 kts | 43° |
| 2026-04-24 16:03 | 56.17566 | 13.56202 | 22254 ft | 406 kts | 43° |
| 2026-04-24 16:04 | 56.19360 | 13.60162 | 22815 ft | 409 kts | 43° |
| 2026-04-24 16:04 | 56.21162 | 13.64144 | 23384 ft | 412 kts | 42° |
| 2026-04-24 16:04 | 56.22951 | 13.68099 | 23862 ft | 414 kts | 42° |
| 2026-04-24 16:04 | 56.24778 | 13.72151 | 24306 ft | 417 kts | 43° |
| 2026-04-24 16:05 | 56.28445 | 13.80309 | 25150 ft | 423 kts | 43° |
| 2026-04-24 16:05 | 56.30304 | 13.84444 | 25564 ft | 426 kts | 43° |
| 2026-04-24 16:06 | 56.34061 | 13.92799 | 26399 ft | 433 kts | 42° |
| 2026-04-24 16:06 | 56.35966 | 13.97044 | 26740 ft | 437 kts | 42° |
| 2026-04-24 16:06 | 56.39813 | 14.05675 | 27487 ft | 443 kts | 43° |
| 2026-04-24 16:07 | 56.41751 | 14.10049 | 27868 ft | 446 kts | 43° |
| 2026-04-24 16:07 | 56.43671 | 14.14396 | 28240 ft | 449 kts | 43° |
| 2026-04-24 16:07 | 56.47594 | 14.23302 | 28971 ft | 454 kts | 43° |
| 2026-04-24 16:08 | 56.49575 | 14.27806 | 29339 ft | 457 kts | 43° |
| 2026-04-24 16:08 | 56.53560 | 14.36862 | 30058 ft | 462 kts | 43° |
| 2026-04-24 16:09 | 56.57572 | 14.46018 | 30708 ft | 468 kts | 43° |
| 2026-04-24 16:09 | 56.59595 | 14.50654 | 31013 ft | 470 kts | 43° |
| 2026-04-24 16:09 | 56.61627 | 14.55319 | 31372 ft | 470 kts | 43° |
| 2026-04-24 16:09 | 56.63656 | 14.59989 | 31813 ft | 469 kts | 43° |
| 2026-04-24 16:10 | 56.69675 | 14.73897 | 33084 ft | 468 kts | 43° |
| 2026-04-24 16:11 | 56.73695 | 14.83227 | 33935 ft | 467 kts | 43° |
| 2026-04-24 16:11 | 56.75703 | 14.87900 | 34306 ft | 466 kts | 44° |
| 2026-04-24 16:11 | 56.77701 | 14.92552 | 34707 ft | 465 kts | 44° |
| 2026-04-24 16:12 | 56.81653 | 15.01797 | 35424 ft | 463 kts | 45° |
| 2026-04-24 16:12 | 56.83628 | 15.06437 | 35752 ft | 462 kts | 45° |
| 2026-04-24 16:12 | 56.87569 | 15.15725 | 36399 ft | 461 kts | 46° |
| 2026-04-24 16:13 | 56.89530 | 15.20351 | 36709 ft | 460 kts | 46° |
| 2026-04-24 16:13 | 56.93429 | 15.29557 | 36928 ft | 460 kts | 46° |
| 2026-04-24 16:14 | 56.97345 | 15.38844 | 36926 ft | 459 kts | 47° |
| 2026-04-24 16:14 | 57.03170 | 15.52748 | 36927 ft | 459 kts | 47° |
| 2026-04-24 16:15 | 57.09021 | 15.66806 | 36930 ft | 461 kts | 47° |
| 2026-04-24 16:16 | 57.14841 | 15.80868 | 36932 ft | 461 kts | 47° |
| 2026-04-24 16:17 | 57.24547 | 16.04477 | 36954 ft | 461 kts | 48° |
| 2026-04-24 16:18 | 57.32260 | 16.23390 | 36958 ft | 461 kts | 48° |
| 2026-04-24 16:19 | 57.38035 | 16.37661 | 36962 ft | 461 kts | 48° |
| 2026-04-24 16:20 | 57.43768 | 16.51929 | 36976 ft | 460 kts | 49° |
| 2026-04-24 16:20 | 57.49483 | 16.66220 | 36958 ft | 459 kts | 49° |
| 2026-04-24 16:21 | 57.55171 | 16.80529 | 36955 ft | 459 kts | 49° |
| 2026-04-24 16:22 | 57.58859 | 16.89845 | 36954 ft | 459 kts | 49° |
| 2026-04-24 16:22 | 57.64514 | 17.04207 | 36954 ft | 459 kts | 49° |
| 2026-04-24 16:23 | 57.68279 | 17.13848 | 36947 ft | 459 kts | 49° |
| 2026-04-24 16:24 | 57.73930 | 17.28348 | 36953 ft | 459 kts | 49° |
| 2026-04-24 16:24 | 57.77661 | 17.37985 | 36952 ft | 459 kts | 50° |
| 2026-04-24 16:25 | 57.81399 | 17.47685 | 36952 ft | 458 kts | 50° |
| 2026-04-24 16:25 | 57.85147 | 17.57419 | 36955 ft | 458 kts | 50° |
| 2026-04-24 16:26 | 57.90709 | 17.71930 | 36952 ft | 457 kts | 50° |
| 2026-04-24 16:27 | 57.96267 | 17.86543 | 36948 ft | 457 kts | 50° |
| 2026-04-24 16:27 | 57.99938 | 17.96274 | 36946 ft | 457 kts | 50° |
| 2026-04-24 16:28 | 58.03601 | 18.06004 | 36963 ft | 457 kts | 50° |
| 2026-04-24 16:28 | 58.09115 | 18.20708 | 36949 ft | 456 kts | 51° |
| 2026-04-24 16:29 | 58.12752 | 18.30450 | 36950 ft | 455 kts | 51° |
| 2026-04-24 16:30 | 58.20044 | 18.50116 | 36940 ft | 455 kts | 51° |
| 2026-04-24 16:30 | 58.23647 | 18.59903 | 36939 ft | 455 kts | 51° |
| 2026-04-24 16:31 | 58.27270 | 18.69788 | 36953 ft | 455 kts | 51° |
| 2026-04-24 16:31 | 58.30883 | 18.79679 | 36947 ft | 455 kts | 51° |
| 2026-04-24 16:32 | 58.34486 | 18.89581 | 36937 ft | 454 kts | 52° |
| 2026-04-24 16:32 | 58.38058 | 18.99431 | 36929 ft | 454 kts | 52° |
| 2026-04-24 16:33 | 58.41642 | 19.09369 | 36917 ft | 454 kts | 52° |
| 2026-04-24 16:33 | 58.45225 | 19.19350 | 36933 ft | 455 kts | 52° |
| 2026-04-24 16:34 | 58.48784 | 19.29278 | 36931 ft | 455 kts | 52° |
| 2026-04-24 16:34 | 58.52360 | 19.39296 | 36936 ft | 455 kts | 52° |
| 2026-04-24 16:35 | 58.55908 | 19.49311 | 36934 ft | 455 kts | 52° |
| 2026-04-24 16:35 | 58.59453 | 19.59384 | 36930 ft | 456 kts | 52° |
| 2026-04-24 16:36 | 58.62997 | 19.69481 | 36936 ft | 456 kts | 52° |
| 2026-04-24 16:36 | 58.66525 | 19.79527 | 36945 ft | 456 kts | 52° |
| 2026-04-24 16:37 | 58.70073 | 19.89657 | 36948 ft | 455 kts | 53° |
| 2026-04-24 16:37 | 58.73595 | 19.99788 | 36936 ft | 454 kts | 53° |
| 2026-04-24 16:38 | 58.77075 | 20.09856 | 36928 ft | 454 kts | 53° |
| 2026-04-24 16:38 | 58.80570 | 20.20022 | 36925 ft | 453 kts | 53° |
| 2026-04-24 16:39 | 58.84044 | 20.30168 | 36918 ft | 453 kts | 53° |
| 2026-04-24 16:39 | 58.87496 | 20.40285 | 36930 ft | 452 kts | 53° |
| 2026-04-24 16:40 | 58.90964 | 20.50457 | 36917 ft | 452 kts | 53° |
| 2026-04-24 16:40 | 58.94414 | 20.60647 | 36912 ft | 451 kts | 54° |
| 2026-04-24 16:41 | 58.97833 | 20.70804 | 36904 ft | 452 kts | 54° |
| 2026-04-24 16:41 | 59.01266 | 20.81040 | 36899 ft | 452 kts | 54° |
| 2026-04-24 16:42 | 59.04680 | 20.91283 | 36894 ft | 452 kts | 54° |
| 2026-04-24 16:42 | 59.07473 | 20.99874 | 36913 ft | 452 kts | 55° |
| 2026-04-24 16:43 | 59.10739 | 21.10320 | 36574 ft | 451 kts | 56° |
| 2026-04-24 16:43 | 59.12364 | 21.15575 | 36321 ft | 451 kts | 56° |
| 2026-04-24 16:43 | 59.13966 | 21.20756 | 36057 ft | 450 kts | 56° |
| 2026-04-24 16:44 | 59.15593 | 21.26003 | 35806 ft | 450 kts | 56° |
| 2026-04-24 16:44 | 59.17217 | 21.31227 | 35557 ft | 449 kts | 56° |
| 2026-04-24 16:44 | 59.18814 | 21.36360 | 35314 ft | 447 kts | 56° |
| 2026-04-24 16:44 | 59.20424 | 21.41541 | 35070 ft | 445 kts | 57° |
| 2026-04-24 16:45 | 59.22031 | 21.46727 | 34826 ft | 443 kts | 57° |
| 2026-04-24 16:45 | 59.23621 | 21.51877 | 34587 ft | 441 kts | 57° |
| 2026-04-24 16:45 | 59.25197 | 21.56997 | 34300 ft | 437 kts | 57° |
| 2026-04-24 16:45 | 59.26759 | 21.62079 | 33811 ft | 436 kts | 57° |
| 2026-04-24 16:46 | 59.28294 | 21.67083 | 33306 ft | 433 kts | 57° |
| 2026-04-24 16:46 | 59.29834 | 21.72119 | 32837 ft | 429 kts | 57° |
| 2026-04-24 16:46 | 59.31357 | 21.77118 | 32373 ft | 426 kts | 57° |
| 2026-04-24 16:46 | 59.32871 | 21.82104 | 31907 ft | 423 kts | 57° |
| 2026-04-24 16:47 | 59.34373 | 21.87054 | 31446 ft | 420 kts | 57° |
| 2026-04-24 16:47 | 59.35860 | 21.91952 | 31002 ft | 418 kts | 57° |
| 2026-04-24 16:47 | 59.37328 | 21.96786 | 30549 ft | 415 kts | 57° |
| 2026-04-24 16:47 | 59.38800 | 22.01645 | 30120 ft | 413 kts | 57° |
| 2026-04-24 16:48 | 59.40266 | 22.06494 | 29647 ft | 411 kts | 57° |
| 2026-04-24 16:48 | 59.41722 | 22.11323 | 29226 ft | 407 kts | 57° |
| 2026-04-24 16:48 | 59.43157 | 22.16109 | 28811 ft | 404 kts | 57° |
| 2026-04-24 16:48 | 59.44579 | 22.20860 | 28424 ft | 401 kts | 56° |
| 2026-04-24 16:49 | 59.45971 | 22.25521 | 28011 ft | 399 kts | 56° |
| 2026-04-24 16:49 | 59.47377 | 22.30217 | 27611 ft | 396 kts | 56° |
| 2026-04-24 16:49 | 59.48767 | 22.34874 | 27212 ft | 395 kts | 56° |
| 2026-04-24 16:49 | 59.50155 | 22.39542 | 26813 ft | 393 kts | 56° |
| 2026-04-24 16:50 | 59.51071 | 22.42626 | 26547 ft | 392 kts | 56° |
| 2026-04-24 16:50 | 59.52907 | 22.48815 | 25996 ft | 389 kts | 55° |
| 2026-04-24 16:50 | 59.54255 | 22.53369 | 25593 ft | 388 kts | 55° |
| 2026-04-24 16:50 | 59.55606 | 22.57958 | 25168 ft | 387 kts | 55° |
| 2026-04-24 16:51 | 59.56953 | 22.62547 | 24756 ft | 386 kts | 55° |
| 2026-04-24 16:51 | 59.58298 | 22.67139 | 24324 ft | 385 kts | 55° |
| 2026-04-24 16:51 | 59.59637 | 22.71715 | 23881 ft | 384 kts | 55° |
| 2026-04-24 16:51 | 59.60972 | 22.76282 | 23435 ft | 384 kts | 54° |
| 2026-04-24 16:52 | 59.62291 | 22.80800 | 22941 ft | 383 kts | 54° |
| 2026-04-24 16:52 | 59.63615 | 22.85347 | 22507 ft | 379 kts | 54° |
| 2026-04-24 16:52 | 59.64924 | 22.89855 | 22055 ft | 377 kts | 54° |
| 2026-04-24 16:52 | 59.66225 | 22.94351 | 21621 ft | 373 kts | 54° |
| 2026-04-24 16:53 | 59.67509 | 22.98793 | 21172 ft | 370 kts | 54° |
| 2026-04-24 16:53 | 59.68798 | 23.03247 | 20508 ft | 374 kts | 53° |
| 2026-04-24 16:53 | 59.70092 | 23.07716 | 20003 ft | 373 kts | 53° |
| 2026-04-24 16:53 | 59.71358 | 23.12096 | 19543 ft | 370 kts | 53° |
| 2026-04-24 16:54 | 59.72632 | 23.16516 | 19096 ft | 368 kts | 53° |
| 2026-04-24 16:54 | 59.73895 | 23.20908 | 18680 ft | 365 kts | 53° |
| 2026-04-24 16:54 | 59.75167 | 23.25319 | 18440 ft | 379 kts | 53° |
| 2026-04-24 16:54 | 59.76481 | 23.29873 | 18005 ft | 377 kts | 53° |
| 2026-04-24 16:55 | 59.77771 | 23.34389 | 17451 ft | 374 kts | 53° |
| 2026-04-24 16:55 | 59.79046 | 23.38887 | 16914 ft | 371 kts | 53° |
| 2026-04-24 16:55 | 59.80289 | 23.43288 | 16372 ft | 368 kts | 53° |
| 2026-04-24 16:55 | 59.81538 | 23.47708 | 15846 ft | 366 kts | 54° |
| 2026-04-24 16:56 | 59.82784 | 23.52115 | 15274 ft | 365 kts | 54° |
| 2026-04-24 16:56 | 59.84025 | 23.56507 | 14708 ft | 363 kts | 54° |
| 2026-04-24 16:56 | 59.85271 | 23.60882 | 14151 ft | 361 kts | 53° |
| 2026-04-24 16:56 | 59.86563 | 23.65139 | 13581 ft | 358 kts | 51° |
| 2026-04-24 16:57 | 59.87893 | 23.69323 | 12971 ft | 355 kts | 51° |
| 2026-04-24 16:57 | 59.89209 | 23.73391 | 12438 ft | 351 kts | 51° |
| 2026-04-24 16:57 | 59.90528 | 23.77464 | 11852 ft | 348 kts | 51° |
| 2026-04-24 16:57 | 59.91831 | 23.81510 | 11296 ft | 345 kts | 51° |
| 2026-04-24 16:58 | 59.93113 | 23.85533 | 10743 ft | 342 kts | 51° |
| 2026-04-24 16:58 | 59.94369 | 23.89512 | 10414 ft | 333 kts | 52° |
| 2026-04-24 16:58 | 59.95567 | 23.93354 | 10286 ft | 318 kts | 52° |
| 2026-04-24 16:58 | 59.96697 | 23.96993 | 10161 ft | 306 kts | 52° |
| 2026-04-24 16:59 | 59.97800 | 24.00543 | 10034 ft | 294 kts | 51° |
| 2026-04-24 16:59 | 59.98862 | 24.03958 | 9868 ft | 285 kts | 51° |
| 2026-04-24 16:59 | 60.00932 | 24.10579 | 9452 ft | 277 kts | 51° |
| 2026-04-24 17:00 | 60.01954 | 24.13839 | 9127 ft | 275 kts | 51° |
| 2026-04-24 17:00 | 60.03956 | 24.20260 | 8448 ft | 272 kts | 52° |
| 2026-04-24 17:00 | 60.04948 | 24.23459 | 7962 ft | 268 kts | 52° |
| 2026-04-24 17:01 | 60.06897 | 24.29768 | 6728 ft | 264 kts | 53° |
| 2026-04-24 17:01 | 60.07851 | 24.32866 | 6239 ft | 259 kts | 53° |
| 2026-04-24 17:02 | 60.09698 | 24.38878 | 5185 ft | 251 kts | 54° |
| 2026-04-24 17:02 | 60.10609 | 24.41850 | 4661 ft | 248 kts | 54° |
| 2026-04-24 17:02 | 60.11512 | 24.44794 | 4212 ft | 248 kts | 54° |
| 2026-04-24 17:02 | 60.12395 | 24.47675 | 3950 ft | 244 kts | 54° |
| 2026-04-24 17:03 | 60.14242 | 24.53214 | 3442 ft | 233 kts | 45° |
| 2026-04-24 17:03 | 60.15320 | 24.55616 | 3223 ft | 228 kts | 43° |
| 2026-04-24 17:03 | 60.16381 | 24.57898 | 3090 ft | 218 kts | 43° |
| 2026-04-24 17:04 | 60.17392 | 24.60080 | 2957 ft | 209 kts | 43° |
| 2026-04-24 17:04 | 60.19302 | 24.64219 | 2695 ft | 200 kts | 43° |
| 2026-04-24 17:04 | 60.20249 | 24.66272 | 2564 ft | 200 kts | 43° |
| 2026-04-24 17:05 | 60.21193 | 24.68323 | 2441 ft | 198 kts | 43° |
| 2026-04-24 17:05 | 60.22132 | 24.70364 | 2355 ft | 198 kts | 43° |
| 2026-04-24 17:05 | 60.23941 | 24.74309 | 2308 ft | 184 kts | 42° |
| 2026-04-24 17:06 | 60.24802 | 24.76183 | 2071 ft | 180 kts | 42° |
| 2026-04-24 17:06 | 60.26467 | 24.79818 | 1585 ft | 171 kts | 42° |
| 2026-04-24 17:06 | 60.27234 | 24.81500 | 1386 ft | 152 kts | 42° |
| 2026-04-24 17:07 | 60.27687 | 24.82494 | 1237 ft | 141 kts | 41° |
| 2026-04-24 17:07 | 60.28551 | 24.84375 | 969 ft | 134 kts | 40° |
| 2026-04-24 17:07 | 60.29774 | 24.87067 | 575 ft | 129 kts | 42° |
| 2026-04-24 17:08 | 60.31007 | 24.89750 | 291 ft | 134 kts | 43° |
| 2026-04-24 17:08 | 60.31632 | 24.91146 | 155 ft | 126 kts | 43° |
| 2026-04-24 17:08 | 60.32145 | 24.92247 | 161 ft | 87 kts | 47° |
| 2026-04-24 17:09 | 60.32765 | 24.93620 | 181 ft | 56 kts | 48° |
| 2026-04-24 17:09 | 60.33119 | 24.94450 | 198 ft | 20 kts | 82° |
| 2026-04-24 17:10 | 60.33114 | 24.94773 | 181 ft | 27 kts | 93° |
| 2026-04-24 17:10 | 60.33204 | 24.95505 | 183 ft | 14 kts | 109° |
| 2026-04-24 17:11 | 60.32867 | 24.96008 | 174 ft | 27 kts | 149° |
| 2026-04-24 17:12 | 60.32019 | 24.96995 | 166 ft | 25 kts | 151° |